Time;durP1;ratioP1;P1;durP2;ratioP2;P2;SDS_P1;SDS_P2;PMS_P1;PMS_P2;Temp;Humidity;BMP_temperature;BMP_pressure;BME280_temperature;BME280_humidity;BME280_pressure;Samples;Min_cycle;Max_cycle;Signal;HPM_P1;HPM_P2
2022/04/29 00:00:47;;;;;;;3.73;3.43;;;17.60;61.20;;;;;;5034395;28;20910;-68
2022/04/29 00:03:16;;;;;;;3.80;3.20;;;17.70;61.20;;;;;;5035061;28;20432;-67
2022/04/29 00:05:46;;;;;;;4.07;3.37;;;17.60;61.20;;;;;;5024815;28;20502;-67
2022/04/29 00:08:15;;;;;;;5.47;3.80;;;17.60;61.10;;;;;;5034462;28;20436;-69
2022/04/29 00:10:44;;;;;;;3.83;3.53;;;17.60;61.30;;;;;;5030462;28;20476;-68
2022/04/29 00:13:16;;;;;;;8.40;3.87;;;17.60;61.50;;;;;;5034923;28;20466;-68
2022/04/29 00:15:45;;;;;;;4.30;3.83;;;17.60;61.30;;;;;;5032979;28;20602;-68
2022/04/29 00:18:13;;;;;;;3.63;3.30;;;17.60;61.40;;;;;;5026170;28;20440;-69
2022/04/29 00:20:41;;;;;;;3.63;3.33;;;17.60;61.50;;;;;;5024925;28;20502;-68
2022/04/29 00:23:10;;;;;;;5.27;3.40;;;17.60;61.20;;;;;;5034873;28;20462;-67
2022/04/29 00:25:39;;;;;;;4.90;3.60;;;17.60;61.40;;;;;;5032295;28;20920;-67
2022/04/29 00:28:07;;;;;;;4.27;3.87;;;17.60;61.50;;;;;;5034672;28;20428;-67
2022/04/29 00:30:37;;;;;;;3.70;3.40;;;17.60;61.50;;;;;;5033630;28;20518;-67
2022/04/29 00:33:05;;;;;;;4.37;3.97;;;17.60;61.50;;;;;;5034456;28;20439;-67
2022/04/29 00:35:34;;;;;;;3.10;2.80;;;17.60;61.50;;;;;;5032913;28;20550;-67
2022/04/29 00:38:02;;;;;;;5.23;3.27;;;17.60;61.50;;;;;;5034541;28;20420;-68
2022/04/29 00:40:32;;;;;;;3.77;3.47;;;17.60;61.50;;;;;;5029954;28;20464;-66
2022/04/29 00:43:00;;;;;;;4.20;3.27;;;17.60;61.50;;;;;;5034742;28;20428;-66
2022/04/29 00:45:29;;;;;;;4.00;3.37;;;17.60;61.50;;;;;;5032741;28;20498;-68
2022/04/29 00:47:58;;;;;;;6.80;3.20;;;17.60;61.50;;;;;;5027527;28;20449;-67
2022/04/29 00:50:28;;;;;;;4.27;3.20;;;17.60;61.50;;;;;;5018457;28;20880;-68
2022/04/29 00:52:59;;;;;;;3.50;3.20;;;17.60;61.50;;;;;;5034214;28;20853;-67
2022/04/29 00:55:28;;;;;;;2.93;2.73;;;17.60;61.50;;;;;;5030737;28;20525;-68
2022/04/29 00:58:01;;;;;;;3.93;3.37;;;17.60;61.60;;;;;;5032755;28;20471;-68
2022/04/29 01:00:31;;;;;;;3.83;3.50;;;17.60;61.50;;;;;;5031859;28;20570;-68
2022/04/29 01:03:03;;;;;;;4.10;3.80;;;17.60;61.50;;;;;;5032213;28;20954;-67
2022/04/29 01:05:33;;;;;;;4.43;3.13;;;17.60;61.50;;;;;;5020624;28;20499;-67
2022/04/29 01:08:01;;;;;;;3.70;3.40;;;17.60;61.50;;;;;;5032754;28;20482;-67
2022/04/29 01:10:29;;;;;;;4.87;4.23;;;17.60;61.50;;;;;;5026527;28;20561;-66
2022/04/29 01:13:03;;;;;;;3.90;2.90;;;17.60;61.50;;;;;;5033564;28;20436;-67
2022/04/29 01:15:32;;;;;;;4.10;3.57;;;17.60;61.50;;;;;;5031391;28;20507;-68
2022/04/29 01:18:08;;;;;;;3.83;3.40;;;17.60;61.50;;;;;;5032547;28;20872;-68
2022/04/29 01:20:38;;;;;;;3.70;3.40;;;17.60;61.50;;;;;;5030308;28;20467;-67
2022/04/29 01:23:10;;;;;;;3.27;2.97;;;17.50;61.50;;;;;;5033463;28;20964;-68
2022/04/29 01:25:39;;;;;;;4.90;3.37;;;17.60;61.50;;;;;;5029327;28;20557;-68
2022/04/29 01:28:08;;;;;;;4.30;3.17;;;17.60;61.60;;;;;;5033526;28;20435;-68
2022/04/29 01:30:41;;;;;;;6.70;4.00;;;17.60;61.50;;;;;;5031365;28;20526;-67
2022/04/29 01:33:12;;;;;;;5.50;4.13;;;17.50;61.50;;;;;;5033362;28;20523;-68
2022/04/29 01:35:40;;;;;;;6.80;3.73;;;17.50;61.50;;;;;;5028721;28;20810;-67
2022/04/29 01:38:12;;;;;;;3.50;3.20;;;17.50;61.50;;;;;;5031790;28;20468;-68
2022/04/29 01:40:40;;;;;;;3.67;3.33;;;17.50;61.50;;;;;;5027355;28;21005;-66
2022/04/29 01:43:14;;;;;;;3.40;3.10;;;17.50;61.50;;;;;;5033250;28;20437;-68
2022/04/29 01:45:43;;;;;;;4.00;3.60;;;17.50;61.50;;;;;;5032536;28;20985;-68
2022/04/29 01:48:31;;;;;;;3.87;3.30;;;17.50;61.50;;;;;;4991999;28;20468;-67
2022/04/29 01:51:31;;;;;;;3.63;3.33;;;17.50;61.50;;;;;;5016483;28;20620;-66
2022/04/29 01:54:01;;;;;;;4.20;3.60;;;17.50;61.50;;;;;;5031012;28;20424;-68
2022/04/29 01:56:35;;;;;;;4.20;3.80;;;17.50;61.50;;;;;;5027441;28;20444;-68
2022/04/29 01:59:05;;;;;;;4.80;4.03;;;17.50;61.50;;;;;;5031353;28;20440;-68
2022/04/29 02:01:38;;;;;;;4.10;3.70;;;17.50;61.50;;;;;;5031536;28;20436;-67
2022/04/29 02:04:07;;;;;;;5.03;4.17;;;17.50;61.50;;;;;;5026424;28;20457;-67
2022/04/29 02:06:37;;;;;;;5.57;3.77;;;17.50;61.50;;;;;;5024684;28;20826;-67
2022/04/29 02:09:08;;;;;;;4.20;3.80;;;17.50;61.50;;;;;;5030841;28;21193;-67
2022/04/29 02:11:36;;;;;;;4.47;4.07;;;17.50;61.50;;;;;;5025129;28;20444;-67
2022/04/29 02:14:34;;;;;;;3.60;3.10;;;17.50;61.50;;;;;;5031667;28;20506;-68
2022/04/29 02:17:05;;;;;;;5.83;3.73;;;17.50;61.50;;;;;;5028752;28;20988;-67
2022/04/29 02:19:34;;;;;;;4.00;3.30;;;17.40;61.30;;;;;;5028934;28;21229;-68
2022/04/29 02:22:05;;;;;;;5.47;3.93;;;17.40;61.40;;;;;;5031235;28;20448;-68
2022/04/29 02:24:35;;;;;;;4.20;3.90;;;17.40;61.30;;;;;;5028327;28;20551;-67
2022/04/29 02:27:06;;;;;;;3.80;3.43;;;17.40;61.30;;;;;;5025541;28;20478;-68
2022/04/29 02:29:36;;;;;;;4.60;4.00;;;17.40;61.30;;;;;;5030419;28;20468;-67
2022/04/29 02:32:12;;;;;;;3.60;3.30;;;17.40;61.40;;;;;;5031799;28;20436;-69
2022/04/29 02:34:42;;;;;;;4.10;3.67;;;17.40;61.30;;;;;;5026532;28;20457;-67
2022/04/29 02:37:11;;;;;;;4.60;3.47;;;17.40;61.40;;;;;;5030976;28;20456;-68
2022/04/29 02:39:43;;;;;;;4.70;4.30;;;17.40;61.30;;;;;;5028291;28;20475;-68
2022/04/29 02:42:11;;;;;;;3.40;3.10;;;17.40;61.30;;;;;;5024254;28;20490;-68
2022/04/29 02:44:40;;;;;;;4.53;4.13;;;17.40;61.30;;;;;;5029614;28;20475;-68
2022/04/29 02:47:10;;;;;;;3.50;3.20;;;17.40;61.30;;;;;;5030614;28;20440;-68
2022/04/29 02:49:40;;;;;;;4.17;3.77;;;17.40;61.30;;;;;;5018383;28;20472;-67
2022/04/29 02:52:10;;;;;;;3.50;3.20;;;17.40;61.30;;;;;;5021203;28;20446;-68
2022/04/29 02:54:39;;;;;;;3.47;3.10;;;17.40;61.40;;;;;;5026998;28;20490;-67
2022/04/29 02:57:16;;;;;;;3.43;3.23;;;17.40;61.30;;;;;;5021140;28;20459;-68
2022/04/29 02:59:45;;;;;;;3.97;3.27;;;17.40;61.30;;;;;;5031624;28;20459;-68
2022/04/29 03:02:13;;;;;;;5.60;3.63;;;17.40;61.30;;;;;;5031460;28;20451;-68
2022/04/29 03:04:42;;;;;;;4.37;4.00;;;17.30;61.20;;;;;;5028271;28;20491;-67
2022/04/29 03:07:10;;;;;;;4.60;3.67;;;17.40;61.30;;;;;;5025107;28;20445;-68
2022/04/29 03:09:50;;;;;;;3.50;3.20;;;17.40;61.30;;;;;;5026264;28;20500;-67
2022/04/29 03:12:23;;;;;;;3.70;3.40;;;17.30;62.50;;;;;;5036565;28;20440;-68
2022/04/29 03:15:18;;;;;;;5.20;3.83;;;17.30;61.20;;;;;;5029882;28;20459;-67
2022/04/29 03:20:37;;;;;;;4.30;3.90;;;17.30;62.50;;;;;;5011505;28;20464;-68
2022/04/29 03:23:06;;;;;;;4.13;3.83;;;17.30;61.20;;;;;;5030455;28;20443;-67
2022/04/29 03:25:37;;;;;;;3.80;3.50;;;17.30;61.20;;;;;;5018900;28;20568;-68
2022/04/29 03:28:07;;;;;;;4.80;4.30;;;17.30;61.20;;;;;;5030084;28;20428;-68
2022/04/29 03:30:36;;;;;;;4.97;3.13;;;17.30;61.30;;;;;;5029647;28;20468;-67
2022/04/29 03:33:06;;;;;;;4.40;4.00;;;17.30;61.20;;;;;;5025883;28;20453;-68
2022/04/29 03:35:41;;;;;;;4.07;3.67;;;17.30;61.20;;;;;;5011178;28;20465;-67
2022/04/29 03:38:16;;;;;;;4.80;4.40;;;17.30;61.20;;;;;;5030082;28;20996;-67
2022/04/29 03:40:44;;;;;;;4.80;4.37;;;17.30;61.20;;;;;;5026103;28;20472;-67
2022/04/29 03:43:15;;;;;;;3.87;3.50;;;17.30;61.30;;;;;;5030350;28;20450;-67
2022/04/29 03:45:46;;;;;;;4.13;3.70;;;17.30;61.30;;;;;;5029502;28;20543;-67
2022/04/29 03:48:23;;;;;;;4.00;3.43;;;17.30;61.20;;;;;;5030106;28;20436;-67
2022/04/29 03:51:06;;;;;;;5.60;4.40;;;17.30;61.30;;;;;;5025367;28;20530;-68
2022/04/29 03:53:34;;;;;;;4.27;3.87;;;17.20;61.10;;;;;;5025719;28;20455;-66
2022/04/29 03:56:06;;;;;;;4.87;4.47;;;17.20;61.10;;;;;;5025148;28;20835;-66
2022/04/29 03:58:35;;;;;;;3.60;3.30;;;17.20;61.10;;;;;;5025099;28;20471;-67
2022/04/29 04:01:03;;;;;;;3.47;3.17;;;17.20;61.10;;;;;;5029566;28;20560;-67
2022/04/29 04:03:46;;;;;;;3.53;3.23;;;17.20;61.10;;;;;;5026006;28;20452;-67
2022/04/29 04:09:05;;;;;;;5.23;3.90;;;17.20;61.10;;;;;;5029610;28;20432;-68
2022/04/29 04:11:34;;;;;;;4.27;3.73;;;17.20;61.20;;;;;;5011476;28;20938;-66
2022/04/29 04:14:03;;;;;;;3.93;3.50;;;17.20;61.10;;;;;;5025635;28;20428;-65
2022/04/29 04:16:40;;;;;;;3.83;3.53;;;17.20;61.50;;;;;;5033794;28;20440;-67
2022/04/29 04:19:09;;;;;;;5.63;3.80;;;17.20;61.20;;;;;;5032348;28;20468;-67
2022/04/29 04:21:37;;;;;;;4.30;3.90;;;17.20;61.20;;;;;;5034801;28;20786;-68
2022/04/29 04:24:08;;;;;;;4.10;3.67;;;17.20;61.10;;;;;;5033646;28;20539;-66
2022/04/29 04:26:36;;;;;;;3.93;3.63;;;17.20;61.30;;;;;;5031986;28;20444;-67
2022/04/29 04:29:10;;;;;;;3.70;3.40;;;17.20;61.20;;;;;;5033985;28;20464;-68
2022/04/29 04:31:43;;;;;;;4.23;3.60;;;17.20;61.10;;;;;;5034228;28;20447;-66
2022/04/29 04:36:57;;;;;;;5.53;4.07;;;17.20;61.50;;;;;;5029767;28;20431;-66
2022/04/29 04:39:26;;;;;;;5.20;4.23;;;17.20;61.40;;;;;;5031775;28;20468;-67
2022/04/29 04:42:06;;;;;;;4.33;3.53;;;17.10;61.40;;;;;;5029589;28;20436;-67
2022/04/29 04:44:57;;;;;;;4.77;4.30;;;17.10;61.20;;;;;;5033383;28;20474;-66
2022/04/29 04:47:27;;;;;;;4.50;4.10;;;17.10;61.40;;;;;;5031705;28;20476;-68
2022/04/29 04:50:21;;;;;;;4.60;3.90;;;17.10;61.30;;;;;;5016368;28;20845;-68
2022/04/29 04:52:49;;;;;;;4.33;3.93;;;17.10;61.40;;;;;;5034114;28;20731;-67
2022/04/29 04:55:18;;;;;;;3.83;3.53;;;17.10;61.50;;;;;;5025711;28;20508;-66
2022/04/29 04:57:47;;;;;;;3.63;3.30;;;17.10;61.70;;;;;;5032810;28;20420;-68
2022/04/29 05:00:18;;;;;;;3.80;3.50;;;17.10;61.50;;;;;;5032066;28;20502;-67
2022/04/29 05:03:17;;;;;;;4.07;3.60;;;17.10;61.50;;;;;;5030361;28;20436;-67
2022/04/29 05:06:07;;;;;;;3.37;3.07;;;17.10;61.60;;;;;;5020759;28;20521;-67
2022/04/29 05:08:36;;;;;;;7.33;4.10;;;17.10;61.80;;;;;;5032595;28;20420;-68
2022/04/29 05:11:04;;;;;;;4.80;4.03;;;17.10;61.70;;;;;;5023598;28;20475;-68
2022/04/29 05:13:32;;;;;;;4.63;4.10;;;17.10;61.70;;;;;;5032648;28;20490;-68
2022/04/29 05:16:02;;;;;;;4.73;4.30;;;17.10;61.80;;;;;;5031520;28;21063;-66
2022/04/29 05:18:43;;;;;;;4.87;4.50;;;17.10;61.80;;;;;;5029082;28;21042;-68
2022/04/29 05:21:17;;;;;;;4.43;3.73;;;17.10;61.70;;;;;;5018617;28;20464;-68
2022/04/29 05:23:45;;;;;;;3.73;3.43;;;17.10;61.80;;;;;;5031867;28;20455;-68
2022/04/29 05:26:48;;;;;;;4.83;3.97;;;17.00;61.70;;;;;;5031518;28;20547;-68
2022/04/29 05:29:37;;;;;;;5.60;3.77;;;17.00;61.80;;;;;;5016576;28;20474;-67
2022/04/29 05:32:42;;;;;;;4.30;3.90;;;17.00;61.80;;;;;;5030082;28;20459;-67
2022/04/29 05:35:29;;;;;;;6.63;3.90;;;17.00;61.90;;;;;;5031692;28;20480;-68
2022/04/29 05:38:16;;;;;;;4.47;3.93;;;17.00;62.00;;;;;;5031466;28;20791;-68
2022/04/29 05:43:31;;;;;;;4.23;3.83;;;17.00;62.00;;;;;;5031123;28;20444;-68
2022/04/29 05:45:59;;;;;;;3.77;3.20;;;17.00;61.90;;;;;;5032195;28;20525;-67
2022/04/29 05:48:28;;;;;;;3.90;3.60;;;17.00;62.00;;;;;;5030157;28;20429;-67
2022/04/29 05:50:58;;;;;;;5.40;4.20;;;17.00;62.00;;;;;;5014408;28;20523;-67
2022/04/29 05:53:27;;;;;;;4.17;3.60;;;17.00;62.10;;;;;;5031906;28;20511;-67
2022/04/29 05:56:02;;;;;;;3.63;3.33;;;17.00;62.00;;;;;;5030234;28;20989;-67
2022/04/29 05:58:30;;;;;;;4.30;3.43;;;17.00;62.10;;;;;;5031574;28;20440;-67
2022/04/29 06:01:21;;;;;;;4.30;3.90;;;17.00;62.20;;;;;;5031066;28;20452;-67
2022/04/29 06:03:51;;;;;;;4.40;4.00;;;17.00;62.10;;;;;;5030357;28;20448;-68
2022/04/29 06:06:20;;;;;;;5.23;3.83;;;17.00;62.20;;;;;;5030882;28;20464;-67
2022/04/29 06:08:52;;;;;;;3.60;3.30;;;17.00;62.20;;;;;;5031443;28;20424;-67
2022/04/29 06:11:21;;;;;;;5.00;4.30;;;17.00;62.20;;;;;;5028993;28;20570;-67
2022/04/29 06:13:50;;;;;;;4.10;3.80;;;17.00;62.20;;;;;;5031501;28;20440;-67
2022/04/29 06:16:45;;;;;;;4.63;3.70;;;17.00;62.30;;;;;;5032008;28;20463;-65
2022/04/29 06:19:50;;;;;;;4.63;3.83;;;16.90;62.30;;;;;;5031274;28;20478;-68
2022/04/29 06:22:43;;;;;;;4.07;3.50;;;16.90;62.30;;;;;;5032449;28;20439;-67
2022/04/29 06:25:12;;;;;;;3.90;3.50;;;16.90;62.20;;;;;;5025417;28;20484;-67
2022/04/29 06:27:46;;;;;;;4.13;3.30;;;16.90;62.20;;;;;;5022440;28;20440;-67
2022/04/29 06:30:14;;;;;;;5.50;4.23;;;16.90;62.20;;;;;;5025859;28;20484;-67
2022/04/29 06:33:12;;;;;;;6.00;3.90;;;16.90;62.20;;;;;;5031249;28;20424;-67
2022/04/29 06:35:47;;;;;;;3.77;3.47;;;16.90;62.30;;;;;;5029518;28;20480;-67
2022/04/29 06:38:15;;;;;;;4.20;3.80;;;16.90;62.40;;;;;;5030508;28;20479;-68
2022/04/29 06:40:56;;;;;;;4.13;3.73;;;16.90;62.40;;;;;;5017167;28;20469;-67
2022/04/29 06:43:32;;;;;;;4.17;3.40;;;16.90;62.40;;;;;;5028344;28;20425;-66
2022/04/29 06:46:18;;;;;;;4.60;4.13;;;16.90;62.30;;;;;;5019304;28;20467;-67
2022/04/29 06:49:05;;;;;;;4.60;3.53;;;16.90;62.40;;;;;;5031527;28;20780;-66
2022/04/29 06:51:53;;;;;;;4.13;3.73;;;16.90;62.30;;;;;;5012404;28;20452;-68
2022/04/29 06:54:24;;;;;;;3.60;3.30;;;16.90;62.30;;;;;;5015697;28;20476;-66
2022/04/29 06:57:01;;;;;;;3.93;3.50;;;16.90;62.30;;;;;;5023274;28;20446;-67
2022/04/29 06:59:29;;;;;;;6.00;4.20;;;16.90;62.40;;;;;;5031067;28;20486;-67
2022/04/29 07:01:57;;;;;;;3.80;3.50;;;16.90;62.30;;;;;;5030644;28;20436;-68
2022/04/29 07:04:28;;;;;;;4.90;4.37;;;16.90;62.30;;;;;;5015258;28;20464;-67
2022/04/29 07:06:57;;;;;;;3.37;3.10;;;16.90;62.40;;;;;;5022309;28;20440;-67
2022/04/29 07:09:26;;;;;;;4.37;3.30;;;16.90;62.50;;;;;;5029096;28;20456;-67
2022/04/29 07:12:39;;;;;;;4.33;3.83;;;16.90;62.50;;;;;;5027703;28;21034;-67
2022/04/29 07:15:09;;;;;;;4.57;4.07;;;16.90;62.50;;;;;;5029919;28;20463;-68
2022/04/29 07:17:37;;;;;;;3.67;3.37;;;16.90;62.70;;;;;;5030099;28;20538;-67
2022/04/29 07:20:07;;;;;;;4.53;4.13;;;16.90;62.60;;;;;;5017043;28;20464;-68
2022/04/29 07:22:39;;;;;;;4.60;3.50;;;16.90;62.50;;;;;;5026833;28;20516;-66
2022/04/29 07:25:09;;;;;;;4.33;3.90;;;16.90;62.50;;;;;;5028853;28;20907;-66
2022/04/29 07:27:38;;;;;;;3.93;3.63;;;16.90;62.50;;;;;;5031237;28;20849;-67
2022/04/29 07:30:10;;;;;;;4.07;3.70;;;16.90;62.60;;;;;;5029523;28;20468;-67
2022/04/29 07:32:55;;;;;;;3.60;3.30;;;16.90;62.60;;;;;;5030580;28;20447;-68
2022/04/29 07:41:46;;;;;;;5.07;3.70;;;16.80;62.70;;;;;;5026486;28;20847;-68
2022/04/29 07:44:18;;;;;;;4.83;4.43;;;16.80;62.70;;;;;;5029440;28;20460;-67
2022/04/29 07:46:49;;;;;;;4.73;4.30;;;16.80;62.70;;;;;;5030035;28;20467;-68
2022/04/29 07:49:43;;;;;;;4.90;3.43;;;16.80;62.60;;;;;;5039386;28;20475;-67
2022/04/29 07:52:17;;;;;;;4.87;4.17;;;16.80;62.70;;;;;;5033368;28;20434;-68
2022/04/29 07:54:47;;;;;;;4.93;4.03;;;16.80;62.70;;;;;;5029369;28;20588;-67
2022/04/29 07:57:15;;;;;;;4.10;3.80;;;16.80;62.60;;;;;;5014449;28;21254;-68
2022/04/29 07:59:43;;;;;;;6.30;3.80;;;16.80;62.60;;;;;;5020335;28;20479;-67
2022/04/29 08:02:45;;;;;;;4.50;3.20;;;16.80;62.80;;;;;;5031809;28;20588;-67
2022/04/29 08:05:20;;;;;;;4.20;3.60;;;16.80;62.90;;;;;;5015528;28;20472;-67
2022/04/29 08:07:48;;;;;;;3.63;3.10;;;16.80;62.90;;;;;;5034019;28;20829;-67
2022/04/29 08:10:19;;;;;;;5.50;3.90;;;16.80;62.90;;;;;;5032577;28;20498;-67
2022/04/29 08:12:47;;;;;;;3.60;2.93;;;16.80;63.00;;;;;;5033907;28;20427;-65
2022/04/29 08:15:34;;;;;;;3.70;3.40;;;16.80;63.00;;;;;;5034087;28;20471;-66
2022/04/29 08:18:16;;;;;;;4.70;3.90;;;16.80;63.00;;;;;;5032095;28;20531;-66
2022/04/29 08:20:44;;;;;;;4.93;4.27;;;16.80;63.00;;;;;;5048121;28;20845;-68
2022/04/29 08:23:12;;;;;;;4.33;3.27;;;16.80;63.10;;;;;;5032962;28;20443;-68
2022/04/29 08:25:42;;;;;;;4.50;3.50;;;16.70;63.00;;;;;;5028629;28;20493;-67
2022/04/29 08:28:11;;;;;;;4.77;3.93;;;16.80;63.00;;;;;;5033127;28;20788;-67
2022/04/29 08:30:40;;;;;;;4.77;4.10;;;16.70;62.90;;;;;;5032383;28;20472;-65
2022/04/29 08:33:15;;;;;;;4.67;3.50;;;16.70;63.00;;;;;;5033898;28;20523;-67
2022/04/29 08:35:47;;;;;;;6.43;4.40;;;16.70;63.00;;;;;;5048820;28;20483;-69
2022/04/29 08:38:16;;;;;;;4.77;4.37;;;16.70;62.90;;;;;;5034074;28;20494;-67
2022/04/29 08:40:53;;;;;;;3.80;3.50;;;16.70;62.70;;;;;;5028893;28;20478;-65
2022/04/29 08:43:28;;;;;;;5.20;3.87;;;16.70;62.80;;;;;;5033006;28;20953;-67
2022/04/29 08:46:01;;;;;;;5.03;4.37;;;16.70;62.80;;;;;;5030965;28;20468;-67
2022/04/29 08:49:03;;;;;;;4.50;3.67;;;16.70;62.90;;;;;;5013751;28;20530;-67
2022/04/29 08:51:34;;;;;;;5.30;4.00;;;16.70;63.00;;;;;;5028513;28;20495;-67
2022/04/29 08:54:02;;;;;;;3.70;3.40;;;16.70;63.10;;;;;;5032711;28;20526;-67
2022/04/29 08:59:20;;;;;;;4.90;3.40;;;16.70;63.00;;;;;;5032499;28;20464;-66
2022/04/29 09:01:48;;;;;;;5.57;3.80;;;16.70;63.10;;;;;;5031080;28;20996;-68
2022/04/29 09:04:18;;;;;;;3.87;3.47;;;16.70;63.10;;;;;;5031850;28;20517;-67
2022/04/29 09:06:49;;;;;;;4.00;3.50;;;16.70;63.10;;;;;;5024061;28;20456;-67
2022/04/29 09:09:21;;;;;;;4.50;3.90;;;16.70;63.10;;;;;;5017597;28;20448;-66
2022/04/29 09:12:11;;;;;;;6.00;3.30;;;16.70;63.10;;;;;;5033311;28;20441;-68
2022/04/29 09:14:39;;;;;;;7.33;4.80;;;16.70;63.20;;;;;;5032702;28;20471;-68
2022/04/29 09:17:26;;;;;;;4.47;3.77;;;16.70;63.10;;;;;;5032272;28;20428;-67
2022/04/29 09:19:54;;;;;;;5.00;4.60;;;16.70;63.10;;;;;;5029392;28;20885;-67
2022/04/29 09:22:22;;;;;;;5.87;5.37;;;16.70;63.10;;;;;;5024618;28;20464;-67
2022/04/29 09:25:02;;;;;;;6.03;4.50;;;16.70;63.10;;;;;;5042166;28;20571;-67
2022/04/29 09:27:58;;;;;;;4.63;3.90;;;16.70;63.10;;;;;;5028562;28;20804;-66
2022/04/29 09:30:45;;;;;;;6.93;6.23;;;16.70;63.10;;;;;;5030797;28;20534;-66
2022/04/29 09:33:37;;;;;;;12.33;9.93;;;16.70;63.00;;;;;;5025200;28;20459;-65
2022/04/29 09:36:22;;;;;;;13.50;10.87;;;16.70;62.80;;;;;;5030655;28;20463;-66
2022/04/29 09:41:39;;;;;;;13.47;9.13;;;16.60;62.00;;;;;;5016572;28;20483;-67
2022/04/29 09:44:27;;;;;;;12.87;11.57;;;16.60;62.70;;;;;;5031819;28;20440;-64
2022/04/29 09:46:55;;;;;;;12.70;10.73;;;16.60;62.70;;;;;;5032999;28;20862;-66
2022/04/29 09:49:28;;;;;;;12.37;10.00;;;16.60;62.90;;;;;;5029883;28;20487;-65
2022/04/29 09:51:56;;;;;;;11.87;9.20;;;16.60;62.50;;;;;;5031598;28;20433;-66
2022/04/29 09:54:26;;;;;;;16.83;11.27;;;16.60;62.80;;;;;;5031777;28;20448;-65
2022/04/29 09:57:12;;;;;;;13.63;10.00;;;16.60;62.70;;;;;;5015208;28;20847;-65
2022/04/29 09:59:43;;;;;;;10.60;9.50;;;16.60;62.60;;;;;;5032462;28;20505;-67
2022/04/29 10:02:14;;;;;;;15.77;9.40;;;16.60;62.80;;;;;;5032126;28;20456;-67
2022/04/29 10:04:45;;;;;;;19.60;13.03;;;16.60;62.80;;;;;;5023784;28;20551;-68
2022/04/29 10:07:16;;;;;;;18.47;13.20;;;16.60;62.70;;;;;;5013133;28;20425;-69
2022/04/29 10:09:47;;;;;;;16.57;12.80;;;16.60;62.50;;;;;;5028502;28;20468;-68
2022/04/29 10:12:16;;;;;;;17.50;13.47;;;16.60;62.40;;;;;;5031569;28;20510;-68
2022/04/29 10:14:54;;;;;;;22.00;12.97;;;16.60;62.30;;;;;;5029992;28;20479;-69
2022/04/29 10:23:17;;;;;;;19.93;13.60;;;16.60;62.10;;;;;;5032138;28;20501;-69
2022/04/29 10:25:47;;;;;;;17.80;13.33;;;16.60;62.00;;;;;;5024813;28;20479;-68
2022/04/29 10:28:18;;;;;;;18.23;12.40;;;16.60;62.00;;;;;;5032171;28;20486;-69
2022/04/29 10:30:59;;;;;;;18.80;13.70;;;16.60;62.20;;;;;;5031600;28;20463;-68
2022/04/29 10:33:27;;;;;;;16.97;13.00;;;16.60;62.10;;;;;;5029958;28;20965;-69
2022/04/29 10:35:57;;;;;;;19.30;14.87;;;16.60;62.00;;;;;;5031330;28;20472;-69
2022/04/29 10:38:27;;;;;;;16.30;12.97;;;16.60;62.10;;;;;;5030637;28;20436;-68
2022/04/29 10:41:10;;;;;;;16.53;14.20;;;16.60;62.20;;;;;;5024464;28;20594;-67
2022/04/29 10:43:40;;;;;;;19.83;12.93;;;16.60;62.30;;;;;;5031455;28;20464;-69
2022/04/29 10:46:23;;;;;;;15.07;11.47;;;16.60;62.40;;;;;;5030740;28;20934;-69
2022/04/29 10:49:20;;;;;;;16.43;11.60;;;16.60;62.50;;;;;;5040503;28;20448;-70
2022/04/29 10:52:24;;;;;;;14.70;12.50;;;16.60;62.40;;;;;;5031626;28;20570;-69
2022/04/29 10:55:00;;;;;;;15.70;13.00;;;16.60;62.30;;;;;;5011451;28;21017;-68
2022/04/29 10:57:40;;;;;;;14.83;11.50;;;16.60;62.30;;;;;;5021983;28;20435;-69
2022/04/29 11:00:13;;;;;;;19.17;12.10;;;16.60;62.30;;;;;;5031185;28;20471;-67
2022/04/29 11:02:46;;;;;;;15.90;14.10;;;16.60;62.40;;;;;;5028889;28;21219;-69
2022/04/29 11:05:34;;;;;;;19.93;13.73;;;16.60;62.50;;;;;;5028201;28;20846;-68
2022/04/29 11:08:08;;;;;;;19.87;13.20;;;16.60;62.50;;;;;;5039083;28;20448;-68
2022/04/29 11:10:55;;;;;;;21.23;13.50;;;16.60;62.40;;;;;;5020617;28;20913;-69
2022/04/29 11:13:24;;;;;;;14.23;11.90;;;16.60;64.10;;;;;;5030717;28;20428;-68
2022/04/29 11:16:14;;;;;;;17.70;12.27;;;16.70;62.60;;;;;;4976327;28;20849;-68
2022/04/29 11:19:21;;;;;;;14.47;10.60;;;16.70;62.10;;;;;;5027054;28;20539;-68
2022/04/29 11:24:46;;;;;;;16.00;11.70;;;16.70;61.40;;;;;;5026593;28;20568;-67
2022/04/29 11:27:37;;;;;;;12.30;10.10;;;16.70;62.00;;;;;;5026611;28;20448;-69
2022/04/29 11:30:10;;;;;;;11.77;10.57;;;16.70;61.90;;;;;;5033720;28;20467;-69
2022/04/29 11:33:23;;;;;;;13.73;10.60;;;16.70;61.70;;;;;;5022898;28;20495;-69
2022/04/29 11:36:01;;;;;;;15.10;12.07;;;16.70;61.60;;;;;;5029829;28;20473;-67
2022/04/29 11:38:31;;;;;;;14.77;11.13;;;16.70;61.40;;;;;;5035060;28;20432;-68
2022/04/29 11:41:03;;;;;;;13.43;11.00;;;16.70;61.50;;;;;;5033549;28;20471;-68
2022/04/29 11:43:31;;;;;;;16.70;11.20;;;16.70;61.50;;;;;;5035432;28;20467;-68
2022/04/29 11:46:02;;;;;;;15.30;11.27;;;16.70;61.40;;;;;;5034553;28;21008;-68
2022/04/29 11:48:30;;;;;;;11.87;9.80;;;16.70;61.00;;;;;;5033675;28;21096;-68
2022/04/29 11:51:00;;;;;;;14.97;10.17;;;16.80;60.90;;;;;;5028288;28;20510;-68
2022/04/29 11:53:28;;;;;;;12.90;9.90;;;16.80;60.80;;;;;;5028430;28;20484;-68
2022/04/29 11:55:57;;;;;;;16.50;10.00;;;16.80;60.80;;;;;;5019740;28;20472;-69
2022/04/29 11:58:29;;;;;;;14.23;11.00;;;16.80;60.80;;;;;;5034846;28;20427;-68
2022/04/29 12:00:57;;;;;;;14.40;10.50;;;16.80;60.80;;;;;;5034183;28;21054;-69
2022/04/29 12:03:26;;;;;;;11.37;10.13;;;16.80;62.10;;;;;;5029027;28;20476;-68
2022/04/29 12:05:54;;;;;;;14.60;11.60;;;16.80;60.80;;;;;;5026950;28;20831;-67
2022/04/29 12:08:25;;;;;;;12.13;9.00;;;16.80;60.80;;;;;;5032742;28;20436;-68
2022/04/29 12:10:59;;;;;;;14.03;10.53;;;16.80;60.80;;;;;;5032008;28;20478;-67
2022/04/29 12:13:28;;;;;;;14.40;10.83;;;16.80;60.80;;;;;;5034739;28;20424;-69
2022/04/29 12:15:56;;;;;;;13.57;9.87;;;16.80;60.80;;;;;;5033538;28;20475;-68
2022/04/29 12:18:42;;;;;;;15.97;10.10;;;16.80;62.10;;;;;;5033887;28;20999;-67
2022/04/29 12:21:10;;;;;;;11.57;8.93;;;16.80;60.80;;;;;;5031090;28;20471;-67
2022/04/29 12:23:43;;;;;;;17.37;11.30;;;16.80;60.80;;;;;;5033086;28;20548;-69
2022/04/29 12:26:12;;;;;;;14.60;10.17;;;16.80;60.80;;;;;;5018488;28;20912;-69
2022/04/29 12:28:41;;;;;;;14.53;10.80;;;16.80;62.10;;;;;;5030422;28;20436;-68
2022/04/29 12:37:09;;;;;;;12.57;10.00;;;16.70;60.70;;;;;;5033080;28;20428;-67
2022/04/29 12:40:04;;;;;;;17.77;11.07;;;16.80;60.90;;;;;;5026568;28;20472;-68
2022/04/29 12:42:33;;;;;;;13.03;8.37;;;16.80;61.10;;;;;;5031067;28;20484;-68
2022/04/29 12:45:11;;;;;;;17.97;11.27;;;16.80;61.00;;;;;;5032291;28;20471;-69
2022/04/29 12:47:49;;;;;;;12.40;9.30;;;16.80;61.00;;;;;;5032794;28;20438;-69
2022/04/29 12:50:24;;;;;;;16.53;10.47;;;16.80;61.00;;;;;;5032033;28;21061;-68
2022/04/29 12:52:56;;;;;;;13.80;10.23;;;16.80;61.20;;;;;;5033458;28;20785;-69
2022/04/29 12:55:27;;;;;;;11.10;8.43;;;16.80;61.30;;;;;;5024462;28;20515;-68
2022/04/29 12:58:04;;;;;;;11.60;9.20;;;16.80;61.30;;;;;;5026191;28;20964;-68
2022/04/29 13:00:38;;;;;;;12.63;9.80;;;16.80;61.40;;;;;;5033125;28;20479;-69
2022/04/29 13:03:08;;;;;;;17.00;10.83;;;16.80;61.20;;;;;;5029394;28;20465;-69
2022/04/29 13:05:40;;;;;;;12.03;8.47;;;16.70;61.20;;;;;;5012332;28;20500;-67
2022/04/29 13:08:09;;;;;;;17.47;10.50;;;16.80;61.20;;;;;;5032892;28;20444;-68
2022/04/29 13:10:49;;;;;;;13.93;10.00;;;16.80;61.30;;;;;;5022840;28;20500;-69
2022/04/29 13:13:17;;;;;;;13.07;9.80;;;16.70;61.40;;;;;;5014118;28;20880;-69
2022/04/29 13:15:45;;;;;;;10.47;8.50;;;16.70;61.20;;;;;;5024617;28;20873;-69
2022/04/29 13:18:19;;;;;;;14.13;9.70;;;16.70;61.30;;;;;;5032472;28;20941;-67
2022/04/29 13:20:49;;;;;;;10.57;9.47;;;16.80;61.60;;;;;;5030536;28;20472;-67
2022/04/29 13:23:21;;;;;;;13.87;9.13;;;16.70;61.60;;;;;;5032573;28;20471;-68
2022/04/29 13:25:57;;;;;;;10.47;7.70;;;16.80;61.60;;;;;;5030121;28;20472;-68
2022/04/29 13:28:26;;;;;;;17.23;10.40;;;16.80;61.50;;;;;;5032836;28;20440;-67
2022/04/29 13:30:54;;;;;;;10.57;8.27;;;16.80;61.60;;;;;;5032022;28;20834;-68
2022/04/29 13:33:22;;;;;;;15.90;9.10;;;16.80;61.90;;;;;;5032228;28;20464;-68
2022/04/29 13:35:50;;;;;;;9.23;7.30;;;16.80;61.80;;;;;;5031696;28;20479;-69
2022/04/29 13:38:19;;;;;;;14.33;10.17;;;16.70;61.70;;;;;;5033384;28;20440;-69
2022/04/29 13:40:47;;;;;;;10.60;8.57;;;16.70;61.80;;;;;;5030316;28;20475;-69
2022/04/29 13:43:17;;;;;;;12.40;10.40;;;16.70;61.80;;;;;;5033463;28;20484;-69
2022/04/29 13:45:45;;;;;;;12.17;9.63;;;16.70;61.80;;;;;;5031090;28;20811;-70
2022/04/29 13:48:15;;;;;;;12.90;10.27;;;16.70;61.70;;;;;;5025236;28;20448;-69
2022/04/29 13:50:44;;;;;;;12.80;9.90;;;16.70;61.40;;;;;;5020426;28;20466;-69
2022/04/29 13:53:15;;;;;;;10.43;8.93;;;16.70;61.50;;;;;;5033161;28;20440;-69